Time;durP1;ratioP1;P1;durP2;ratioP2;P2;SDS_P1;SDS_P2;PMS_P1;PMS_P2;Temp;Humidity;BMP_temperature;BMP_pressure;BME280_temperature;BME280_humidity;BME280_pressure;Samples;Min_cycle;Max_cycle;Signal;HPM_P1;HPM_P2
2024/01/29 00:00:13;;;;;;;14.10;9.60;;;;;;;-2.00;100.00;102419.37;87280;267;137155;-72
2024/01/29 00:02:18;;;;;;;12.90;10.70;;;;;;;-2.07;100.00;102419.46;87468;267;22645;-73
2024/01/29 00:04:20;;;;;;;12.50;9.40;;;;;;;-2.11;100.00;102422.90;87379;269;137200;-73
2024/01/29 00:06:22;;;;;;;13.80;10.20;;;;;;;-2.08;100.00;102422.63;87548;265;22587;-73
2024/01/29 00:08:26;;;;;;;15.30;10.90;;;;;;;-2.02;100.00;102418.39;87207;268;137314;-75
2024/01/29 00:10:28;;;;;;;12.00;9.50;;;;;;;-1.99;100.00;102417.58;87334;268;22568;-73
2024/01/29 00:12:30;;;;;;;13.90;10.40;;;;;;;-2.01;100.00;102421.67;87267;263;137092;-72
2024/01/29 00:14:31;;;;;;;14.70;10.40;;;;;;;-2.05;100.00;102423.23;87427;270;22632;-74
2024/01/29 00:16:33;;;;;;;14.00;9.90;;;;;;;-2.09;100.00;102425.98;87220;273;137009;-72
2024/01/29 00:18:35;;;;;;;17.40;11.40;;;;;;;-2.15;100.00;102428.45;87060;272;22548;-70
2024/01/29 00:20:37;;;;;;;11.60;9.30;;;;;;;-2.20;100.00;102427.40;87200;267;136944;-74
2024/01/29 00:22:39;;;;;;;11.50;9.30;;;;;;;-2.20;100.00;102423.21;87463;263;24059;-71
2024/01/29 00:24:40;;;;;;;12.90;10.00;;;;;;;-2.18;100.00;102426.82;87333;270;137109;-71
2024/01/29 00:26:42;;;;;;;12.40;9.50;;;;;;;-2.15;100.00;102425.83;87277;268;25153;-70
2024/01/29 00:28:44;;;;;;;14.00;10.40;;;;;;;-2.16;100.00;102432.50;87313;273;136680;-72
2024/01/29 00:30:46;;;;;;;12.00;9.90;;;;;;;-2.21;100.00;102431.80;87424;268;24049;-71
2024/01/29 00:32:48;;;;;;;14.50;11.00;;;;;;;-2.23;100.00;102432.21;87210;265;136584;-70
2024/01/29 00:34:51;;;;;;;14.50;11.30;;;;;;;-2.26;100.00;102427.98;87397;263;23076;-71
2024/01/29 00:36:54;;;;;;;15.40;12.30;;;;;;;-2.33;100.00;102428.20;87659;263;137149;-71
2024/01/29 00:38:56;;;;;;;17.40;10.20;;;;;;;-2.35;100.00;102419.92;87265;276;22573;-72
2024/01/29 00:40:58;;;;;;;15.20;11.50;;;;;;;-2.30;100.00;102423.58;87222;275;138797;-71
2024/01/29 00:43:00;;;;;;;16.40;12.30;;;;;;;-2.25;100.00;102427.58;87486;270;22669;-74
2024/01/29 00:45:03;;;;;;;12.70;9.90;;;;;;;-2.24;100.00;102427.38;87468;267;136801;-72
2024/01/29 00:47:05;;;;;;;17.20;12.20;;;;;;;-2.29;100.00;102429.29;87478;269;27307;-73
2024/01/29 00:49:06;;;;;;;13.70;10.60;;;;;;;-2.33;100.00;102433.09;87242;267;136396;-73
2024/01/29 00:51:09;;;;;;;14.50;11.80;;;;;;;-2.37;100.00;102431.98;87471;270;22590;-71
2024/01/29 00:53:11;;;;;;;15.30;11.90;;;;;;;-2.42;100.00;102431.80;87305;272;136713;-70
2024/01/29 00:55:13;;;;;;;15.80;13.30;;;;;;;-2.44;100.00;102431.20;87454;271;22764;-72
2024/01/29 00:57:16;;;;;;;16.90;11.90;;;;;;;-2.44;100.00;102430.86;87267;273;136655;-73
2024/01/29 00:59:18;;;;;;;16.30;12.00;;;;;;;-2.36;100.00;102432.33;87306;268;25989;-73
2024/01/29 01:01:20;;;;;;;15.10;10.70;;;;;;;-2.24;100.00;102434.17;87342;267;137505;-74
2024/01/29 01:03:22;;;;;;;13.90;10.10;;;;;;;-2.15;100.00;102435.09;87322;271;22665;-72
2024/01/29 01:05:24;;;;;;;17.90;12.40;;;;;;;-2.16;100.00;102435.98;87210;273;136719;-73
2024/01/29 01:07:27;;;;;;;14.30;11.30;;;;;;;-2.23;100.00;102439.71;87270;268;22568;-74
2024/01/29 01:09:29;;;;;;;17.20;12.20;;;;;;;-2.32;100.00;102441.59;87346;267;136533;-73
2024/01/29 01:11:30;;;;;;;15.40;12.90;;;;;;;-2.41;100.00;102445.73;87436;267;24549;-72
2024/01/29 01:13:33;;;;;;;17.30;12.70;;;;;;;-2.46;100.00;102444.70;87274;270;137923;-73
2024/01/29 01:15:35;;;;;;;21.70;14.90;;;;;;;-2.49;100.00;102449.83;87376;272;22568;-75
2024/01/29 01:17:36;;;;;;;24.70;13.90;;;;;;;-2.46;100.00;102450.27;87199;268;137160;-73
2024/01/29 01:19:39;;;;;;;18.10;14.00;;;;;;;-2.39;100.00;102451.56;87290;268;25220;-74
2024/01/29 01:21:40;;;;;;;20.90;13.40;;;;;;;-2.32;100.00;102450.48;87313;268;137069;-75
2024/01/29 01:23:42;;;;;;;17.90;11.70;;;;;;;-2.28;100.00;102447.05;87173;274;22584;-76
2024/01/29 01:25:45;;;;;;;19.90;12.80;;;;;;;-2.28;100.00;102449.62;87283;273;136560;-72
2024/01/29 01:27:47;;;;;;;15.80;12.60;;;;;;;-2.28;100.00;102452.80;87590;268;24113;-75
2024/01/29 01:31:57;;;;;;;15.50;11.70;;;;;;;-2.50;100.00;102451.76;85013;297;603542;-71
2024/01/29 01:33:58;;;;;;;20.00;13.60;;;;;;;-2.56;100.00;102453.02;86148;288;137046;-72
2024/01/29 01:36:01;;;;;;;21.20;14.60;;;;;;;-2.63;100.00;102458.66;86240;290;25177;-71
2024/01/29 01:38:03;;;;;;;23.80;14.60;;;;;;;-2.69;100.00;102461.29;86278;286;25273;-74
2024/01/29 01:40:06;;;;;;;21.20;14.40;;;;;;;-2.75;100.00;102464.80;86176;287;136171;-74
2024/01/29 01:42:08;;;;;;;17.80;12.70;;;;;;;-2.73;100.00;102465.93;86169;287;25132;-72
2024/01/29 01:44:10;;;;;;;23.00;14.30;;;;;;;-2.64;100.00;102460.27;86097;287;137045;-72
2024/01/29 01:46:23;;;;;;;22.90;14.60;;;;;;;-2.58;100.00;102453.25;85868;286;609492;-72
2024/01/29 01:48:25;;;;;;;24.50;16.20;;;;;;;-2.56;100.00;102449.88;86363;290;136950;-72
2024/01/29 01:50:27;;;;;;;28.80;17.80;;;;;;;-2.55;100.00;102452.83;86815;285;25220;-71
2024/01/29 01:52:29;;;;;;;25.90;16.30;;;;;;;-2.58;100.00;102449.60;86213;288;136823;-73
2024/01/29 01:54:31;;;;;;;24.00;15.80;;;;;;;-2.57;100.00;102447.84;86648;286;24030;-71
2024/01/29 01:56:37;;;;;;;30.10;18.70;;;;;;;-2.59;100.00;102451.38;86762;285;136434;-71
2024/01/29 01:58:41;;;;;;;30.40;19.50;;;;;;;-2.61;100.00;102453.01;86807;285;22558;-71
2024/01/29 02:00:44;;;;;;;30.40;19.90;;;;;;;-2.64;100.00;102455.20;86698;277;137818;-72
2024/01/29 02:02:46;;;;;;;28.70;17.60;;;;;;;-2.67;100.00;102460.02;86559;285;22561;-72
2024/01/29 02:04:49;;;;;;;27.40;17.70;;;;;;;-2.70;100.00;102466.20;86649;277;138073;-71
2024/01/29 02:06:51;;;;;;;24.80;16.40;;;;;;;-2.71;100.00;102473.02;87353;270;22552;-69
2024/01/29 02:08:55;;;;;;;23.20;13.40;;;;;;;-2.64;100.00;102473.64;87432;269;136543;-70
2024/01/29 02:10:57;;;;;;;20.30;13.40;;;;;;;-2.51;100.00;102474.44;87723;282;23353;-71
2024/01/29 02:12:59;;;;;;;17.60;12.70;;;;;;;-2.43;100.00;102478.71;87718;278;137290;-72
2024/01/29 02:15:01;;;;;;;13.40;10.50;;;;;;;-2.42;100.00;102480.40;87539;274;22601;-70
2024/01/29 02:17:03;;;;;;;15.70;11.50;;;;;;;-2.49;100.00;102478.39;87255;274;137102;-69
2024/01/29 02:19:17;;;;;;;14.00;10.90;;;;;;;-2.59;100.00;102479.75;87167;275;22530;-72
2024/01/29 02:21:20;;;;;;;12.20;10.40;;;;;;;-2.67;100.00;102482.61;87049;274;136362;-72
2024/01/29 02:23:22;;;;;;;16.10;10.90;;;;;;;-2.74;100.00;102486.35;87430;281;22551;-73
2024/01/29 02:25:24;;;;;;;12.50;9.50;;;;;;;-2.79;100.00;102487.52;87023;274;136731;-71
2024/01/29 02:27:26;;;;;;;13.90;10.10;;;;;;;-2.72;100.00;102489.21;87093;274;23846;-72
2024/01/29 02:29:28;;;;;;;12.30;10.30;;;;;;;-2.64;100.00;102493.85;87572;270;138319;-72
2024/01/29 02:31:31;;;;;;;13.90;9.60;;;;;;;-2.63;100.00;102496.76;87279;278;23736;-72
2024/01/29 02:33:33;;;;;;;14.00;10.50;;;;;;;-2.68;100.00;102495.90;87161;277;136390;-70
2024/01/29 02:35:35;;;;;;;12.80;9.50;;;;;;;-2.74;100.00;102493.65;87257;269;22568;-71
2024/01/29 02:37:37;;;;;;;13.20;11.00;;;;;;;-2.79;100.00;102497.27;87209;274;136220;-72
2024/01/29 02:39:39;;;;;;;12.40;10.40;;;;;;;-2.83;100.00;102494.45;87221;277;24014;-73
2024/01/29 02:41:41;;;;;;;16.50;11.70;;;;;;;-2.86;100.00;102493.33;87225;267;136588;-72
2024/01/29 02:43:43;;;;;;;16.40;11.00;;;;;;;-2.89;100.00;102493.09;87292;271;25080;-70
2024/01/29 02:45:44;;;;;;;14.70;11.20;;;;;;;-2.85;100.00;102496.05;87273;270;137800;-73
2024/01/29 02:47:46;;;;;;;14.00;11.00;;;;;;;-2.72;100.00;102495.16;87249;278;22574;-78
2024/01/29 02:49:49;;;;;;;13.40;10.10;;;;;;;-2.65;100.00;102496.12;87126;278;136885;-71
2024/01/29 02:51:51;;;;;;;15.20;10.60;;;;;;;-2.59;100.00;102494.37;87262;279;26313;-71
2024/01/29 02:53:53;;;;;;;12.60;10.70;;;;;;;-2.62;100.00;102497.58;87144;267;136598;-73
2024/01/29 02:55:55;;;;;;;12.00;9.50;;;;;;;-2.68;100.00;102504.06;87382;271;22584;-72
2024/01/29 02:57:56;;;;;;;12.30;9.30;;;;;;;-2.71;100.00;102505.06;87303;271;137496;-74
2024/01/29 02:59:58;;;;;;;15.50;11.00;;;;;;;-2.76;100.00;102506.23;87237;271;26198;-72
2024/01/29 03:02:00;;;;;;;14.90;10.60;;;;;;;-2.81;100.00;102509.69;87304;271;137227;-72
2024/01/29 03:04:02;;;;;;;13.80;10.20;;;;;;;-2.83;100.00;102513.09;87385;267;25252;-74
2024/01/29 03:06:04;;;;;;;14.70;10.70;;;;;;;-2.85;100.00;102514.02;87180;270;22543;-70
2024/01/29 03:08:06;;;;;;;15.40;11.00;;;;;;;-2.79;100.00;102517.80;87128;270;138631;-72
2024/01/29 03:10:09;;;;;;;15.00;10.80;;;;;;;-2.68;100.00;102516.59;87357;278;24071;-73
2024/01/29 03:12:11;;;;;;;16.80;11.70;;;;;;;-2.62;100.00;102514.99;87217;270;138531;-72
2024/01/29 03:14:12;;;;;;;15.60;10.00;;;;;;;-2.61;100.00;102514.63;87249;266;25098;-73
2024/01/29 03:16:14;;;;;;;15.60;11.70;;;;;;;-2.67;100.00;102512.38;87168;277;136432;-71
2024/01/29 03:18:16;;;;;;;15.40;10.90;;;;;;;-2.73;100.00;102510.31;87313;274;22566;-73
2024/01/29 03:20:19;;;;;;;14.80;11.40;;;;;;;-2.78;100.00;102509.59;87311;278;137558;-75
2024/01/29 03:22:21;;;;;;;13.70;10.80;;;;;;;-2.81;100.00;102509.69;87355;267;26389;-71
2024/01/29 03:24:23;;;;;;;15.10;11.30;;;;;;;-2.85;100.00;102507.21;86974;272;136389;-70
2024/01/29 03:26:25;;;;;;;15.40;10.40;;;;;;;-2.88;100.00;102508.88;87223;271;22711;-73
2024/01/29 03:28:26;;;;;;;16.10;11.70;;;;;;;-2.88;100.00;102516.01;87297;263;136736;-73
2024/01/29 03:30:28;;;;;;;12.80;10.00;;;;;;;-2.82;100.00;102518.94;87385;274;26751;-72
2024/01/29 03:32:30;;;;;;;13.60;10.30;;;;;;;-2.77;100.00;102524.20;87314;274;137026;-73
2024/01/29 03:34:34;;;;;;;16.40;11.20;;;;;;;-2.77;100.00;102525.58;87262;270;22635;-72
2024/01/29 03:36:37;;;;;;;14.20;10.30;;;;;;;-2.82;100.00;102523.83;87213;274;137855;-72
2024/01/29 03:38:38;;;;;;;13.00;9.50;;;;;;;-2.89;100.00;102527.70;87339;274;22589;-72
2024/01/29 03:40:40;;;;;;;14.80;11.00;;;;;;;-2.96;100.00;102527.57;87196;278;136071;-69
2024/01/29 03:42:42;;;;;;;14.40;11.60;;;;;;;-3.01;100.00;102527.20;87133;271;24251;-72
2024/01/29 03:44:48;;;;;;;14.70;11.50;;;;;;;-2.96;100.00;102523.39;87012;271;137716;-71
2024/01/29 03:46:50;;;;;;;13.50;10.50;;;;;;;-2.89;100.00;102527.36;87270;270;22577;-71
2024/01/29 03:48:51;;;;;;;13.20;10.30;;;;;;;-2.91;100.00;102526.19;87149;270;136300;-73
2024/01/29 03:50:54;;;;;;;14.40;10.40;;;;;;;-2.98;100.00;102524.30;87391;270;25319;-72
2024/01/29 03:52:56;;;;;;;15.50;11.70;;;;;;;-3.02;100.00;102524.45;87170;271;137470;-73
2024/01/29 03:54:57;;;;;;;15.30;11.20;;;;;;;-3.07;100.00;102525.64;87311;269;22575;-70
2024/01/29 03:57:01;;;;;;;16.60;11.50;;;;;;;-3.09;100.00;102524.49;87308;270;136170;-70
2024/01/29 03:59:03;;;;;;;16.20;10.20;;;;;;;-3.08;100.00;102526.70;87323;274;24251;-71
2024/01/29 04:01:04;;;;;;;16.30;10.80;;;;;;;-2.99;100.00;102529.20;87181;274;137861;-71
2024/01/29 04:03:07;;;;;;;16.60;12.50;;;;;;;-2.88;100.00;102532.21;87388;270;25089;-71
2024/01/29 04:05:09;;;;;;;14.50;10.30;;;;;;;-2.83;100.00;102532.39;87320;266;136797;-70
2024/01/29 04:07:12;;;;;;;14.80;11.70;;;;;;;-2.85;100.00;102528.45;87279;271;26335;-72
2024/01/29 04:09:20;;;;;;;14.10;11.10;;;;;;;-2.88;100.00;102531.68;87340;274;136527;-75
2024/01/29 04:11:23;;;;;;;17.50;12.20;;;;;;;-2.92;100.00;102529.03;87470;274;22571;-73
2024/01/29 04:13:24;;;;;;;15.80;11.70;;;;;;;-2.97;100.00;102526.54;87385;270;137802;-75
2024/01/29 04:15:26;;;;;;;15.30;12.60;;;;;;;-2.99;100.00;102525.71;87387;274;22564;-72
2024/01/29 04:17:29;;;;;;;18.60;12.60;;;;;;;-3.01;100.00;102533.63;87154;271;137130;-73
2024/01/29 04:19:31;;;;;;;18.10;12.50;;;;;;;-3.04;100.00;102532.84;87422;278;25211;-73
2024/01/29 04:21:33;;;;;;;16.20;11.90;;;;;;;-2.99;100.00;102537.73;87335;271;136921;-71
2024/01/29 04:23:35;;;;;;;19.40;12.60;;;;;;;-2.88;100.00;102542.63;87203;271;22645;-72
2024/01/29 04:25:37;;;;;;;17.20;13.80;;;;;;;-2.85;100.00;102542.36;87212;272;136959;-72
2024/01/29 04:27:39;;;;;;;20.30;12.60;;;;;;;-2.89;100.00;102544.58;87353;278;25076;-69
2024/01/29 04:29:41;;;;;;;20.80;13.80;;;;;;;-2.94;100.00;102550.13;86972;275;137835;-71
2024/01/29 04:31:43;;;;;;;20.50;14.40;;;;;;;-2.98;100.00;102558.59;87334;278;24145;-72
2024/01/29 04:33:45;;;;;;;21.40;14.40;;;;;;;-3.01;100.00;102555.73;87332;271;136838;-71
2024/01/29 04:35:48;;;;;;;22.10;16.60;;;;;;;-3.04;100.00;102558.59;87332;274;22557;-72
2024/01/29 04:37:50;;;;;;;24.20;18.00;;;;;;;-3.08;100.00;102557.67;87383;274;136389;-72
2024/01/29 04:39:51;;;;;;;25.90;18.00;;;;;;;-3.10;100.00;102562.96;87296;270;23997;-72
2024/01/29 04:41:53;;;;;;;28.40;18.40;;;;;;;-3.14;100.00;102563.42;87141;270;136202;-71
2024/01/29 04:43:55;;;;;;;25.60;18.30;;;;;;;-3.10;100.00;102566.78;87340;278;22705;-73
2024/01/29 04:45:57;;;;;;;25.10;17.80;;;;;;;-3.00;100.00;102561.95;87238;269;136926;-74
2024/01/29 04:47:59;;;;;;;25.90;18.70;;;;;;;-2.92;100.00;102565.54;87355;264;23775;-73
2024/01/29 04:50:01;;;;;;;26.30;18.80;;;;;;;-2.90;100.00;102567.95;87272;275;138027;-75
2024/01/29 04:52:03;;;;;;;25.20;18.70;;;;;;;-2.96;100.00;102562.54;87197;274;137072;-71
2024/01/29 04:54:05;;;;;;;26.50;19.20;;;;;;;-2.99;100.00;102566.45;87450;270;22555;-72
2024/01/29 04:56:07;;;;;;;28.00;20.30;;;;;;;-3.01;100.00;102574.87;87245;266;139659;-72
2024/01/29 04:58:09;;;;;;;29.60;21.80;;;;;;;-3.05;100.00;102577.05;87286;271;25132;-75
2024/01/29 05:00:12;;;;;;;34.40;22.80;;;;;;;-3.09;100.00;102572.48;87193;267;137964;-72
2024/01/29 05:02:16;;;;;;;32.30;22.20;;;;;;;-3.11;100.00;102568.92;87288;278;22574;-74
2024/01/29 05:04:18;;;;;;;31.70;21.80;;;;;;;-3.15;100.00;102574.57;87188;267;137554;-73
2024/01/29 05:06:20;;;;;;;30.70;21.70;;;;;;;-3.17;100.00;102574.64;87290;275;25140;-73
2024/01/29 05:08:23;;;;;;;28.40;20.10;;;;;;;-3.09;100.00;102578.41;87269;278;138754;-71
2024/01/29 05:10:24;;;;;;;26.80;19.10;;;;;;;-2.95;100.00;102575.05;87420;267;25200;-70
2024/01/29 05:12:26;;;;;;;27.30;19.20;;;;;;;-2.88;100.00;102572.73;87067;270;138803;-70
2024/01/29 05:14:28;;;;;;;26.00;17.90;;;;;;;-2.82;100.00;102569.95;87326;273;25124;-73
2024/01/29 05:16:32;;;;;;;28.80;19.00;;;;;;;-2.84;100.00;102570.35;87308;268;136793;-72
2024/01/29 05:18:36;;;;;;;27.20;19.30;;;;;;;-2.89;100.00;102570.17;87227;270;22664;-72
2024/01/29 05:20:38;;;;;;;26.90;19.80;;;;;;;-2.93;100.00;102574.29;87354;274;137900;-70
2024/01/29 05:22:42;;;;;;;27.20;18.30;;;;;;;-2.96;100.00;102575.22;87372;274;22642;-70
2024/01/29 05:24:44;;;;;;;29.80;21.40;;;;;;;-2.99;100.00;102573.77;87432;270;138158;-73
2024/01/29 05:26:46;;;;;;;25.30;19.90;;;;;;;-3.03;100.00;102576.13;87525;266;25140;-72
2024/01/29 05:28:48;;;;;;;28.10;19.60;;;;;;;-3.06;100.00;102583.88;87141;270;136161;-70
2024/01/29 05:30:52;;;;;;;29.30;19.00;;;;;;;-3.11;100.00;102592.55;87255;272;23739;-73
2024/01/29 05:32:54;;;;;;;25.90;18.50;;;;;;;-3.07;100.00;102593.48;87306;271;137426;-71
2024/01/29 05:34:57;;;;;;;23.30;17.00;;;;;;;-3.02;100.00;102589.67;87195;276;22788;-73
2024/01/29 05:36:59;;;;;;;26.70;18.80;;;;;;;-2.99;100.00;102593.41;87336;278;137424;-72
2024/01/29 05:39:01;;;;;;;24.40;17.80;;;;;;;-3.00;100.00;102602.14;87282;263;22535;-72
2024/01/29 05:41:03;;;;;;;32.00;20.30;;;;;;;-3.05;100.00;102603.51;87229;269;136949;-71
2024/01/29 05:43:05;;;;;;;31.30;23.00;;;;;;;-3.10;100.00;102601.02;87161;275;25840;-72
2024/01/29 05:45:07;;;;;;;37.10;23.00;;;;;;;-3.11;100.00;102599.70;87033;279;136005;-72
2024/01/29 05:47:09;;;;;;;34.20;23.00;;;;;;;-3.16;100.00;102599.64;87258;278;22577;-74
2024/01/29 05:49:11;;;;;;;33.10;23.70;;;;;;;-3.20;100.00;102602.89;87165;271;138294;-72
2024/01/29 05:51:13;;;;;;;33.40;22.70;;;;;;;-3.24;100.00;102600.58;87352;271;22555;-71
2024/01/29 05:53:19;;;;;;;36.50;21.30;;;;;;;-3.29;100.00;102602.30;86962;269;136156;-70
2024/01/29 05:55:21;;;;;;;34.40;24.80;;;;;;;-3.25;100.00;102607.92;87685;270;23872;-75
2024/01/29 05:57:22;;;;;;;35.40;23.60;;;;;;;-3.17;100.00;102612.54;87195;266;137351;-76
2024/01/29 05:59:24;;;;;;;36.40;23.80;;;;;;;-3.11;100.00;102612.39;87395;278;24141;-77
2024/01/29 06:01:26;;;;;;;34.50;23.00;;;;;;;-3.03;100.00;102615.98;87616;270;137382;-76
2024/01/29 06:03:28;;;;;;;35.00;24.90;;;;;;;-2.99;100.00;102619.52;87658;266;25080;-75
2024/01/29 06:05:30;;;;;;;39.40;29.70;;;;;;;-2.97;100.00;102624.84;87608;274;136390;-77
2024/01/29 06:07:31;;;;;;;35.80;25.70;;;;;;;-2.94;100.00;102625.62;87726;278;25111;-77
2024/01/29 06:09:33;;;;;;;36.50;24.00;;;;;;;-2.91;100.00;102629.20;87507;271;136474;-75
2024/01/29 06:11:36;;;;;;;32.40;22.50;;;;;;;-2.87;100.00;102628.73;87657;270;22559;-75
2024/01/29 06:13:38;;;;;;;33.60;22.00;;;;;;;-2.84;100.00;102631.63;87758;270;138068;-75
2024/01/29 06:15:40;;;;;;;33.10;23.30;;;;;;;-2.82;100.00;102633.48;87675;274;22545;-74
2024/01/29 06:17:42;;;;;;;31.20;20.20;;;;;;;-2.82;100.00;102635.35;87467;268;137828;-75
2024/01/29 06:19:45;;;;;;;29.00;20.50;;;;;;;-2.74;100.00;102633.91;87545;271;22524;-77
2024/01/29 06:22:06;;;;;;;32.80;20.80;;;;;;;-2.57;100.00;102640.72;87564;270;22587;-78
2024/01/29 06:24:08;;;;;;;29.10;20.50;;;;;;;-2.48;100.00;102648.95;87633;265;137311;-76
2024/01/29 06:26:11;;;;;;;38.50;23.50;;;;;;;-2.42;100.00;102655.77;87583;266;22568;-78
2024/01/29 06:28:12;;;;;;;30.90;20.40;;;;;;;-2.41;100.00;102656.05;87499;271;137770;-77
2024/01/29 06:30:15;;;;;;;30.70;21.90;;;;;;;-2.39;100.00;102655.83;87615;266;24135;-77
2024/01/29 06:32:17;;;;;;;37.40;23.90;;;;;;;-2.37;100.00;102657.35;87251;271;136809;-76
2024/01/29 06:34:18;;;;;;;36.30;25.90;;;;;;;-2.36;100.00;102657.98;87603;278;22591;-76
2024/01/29 06:36:21;;;;;;;33.00;22.70;;;;;;;-2.36;100.00;102649.64;87543;271;137204;-78
2024/01/29 06:38:22;;;;;;;27.60;21.90;;;;;;;-2.34;100.00;102648.73;87529;271;22575;-76
2024/01/29 06:40:27;;;;;;;29.90;20.80;;;;;;;-2.31;100.00;102649.51;87257;267;136556;-77
2024/01/29 06:42:29;;;;;;;27.00;19.40;;;;;;;-2.26;100.00;102652.84;87646;278;25405;-78
2024/01/29 06:44:32;;;;;;;30.20;21.30;;;;;;;-2.17;100.00;102662.45;87461;274;138227;-76
2024/01/29 06:46:33;;;;;;;25.60;19.20;;;;;;;-2.05;100.00;102669.05;87586;271;24811;-73
2024/01/29 06:48:37;;;;;;;30.10;23.40;;;;;;;-1.96;100.00;102664.06;87534;278;138501;-75
2024/01/29 06:50:40;;;;;;;23.70;17.70;;;;;;;-1.87;100.00;102662.54;87698;266;22577;-75
2024/01/29 06:52:41;;;;;;;23.90;16.50;;;;;;;-1.83;100.00;102665.21;87581;271;137491;-76
2024/01/29 06:54:43;;;;;;;21.30;17.20;;;;;;;-1.80;100.00;102666.67;87407;268;25210;-76
2024/01/29 06:56:46;;;;;;;22.80;18.00;;;;;;;-1.79;100.00;102668.01;87325;272;140372;-73
2024/01/29 06:58:47;;;;;;;30.20;23.80;;;;;;;-1.78;100.00;102672.35;87666;270;22579;-75
2024/01/29 07:00:50;;;;;;;30.30;24.00;;;;;;;-1.76;100.00;102673.69;87551;270;136600;-76
2024/01/29 07:02:52;;;;;;;28.70;23.50;;;;;;;-1.78;100.00;102670.23;87697;275;22574;-73
2024/01/29 07:04:54;;;;;;;31.00;23.30;;;;;;;-1.78;100.00;102670.80;87200;271;136832;-72
2024/01/29 07:06:56;;;;;;;28.30;20.30;;;;;;;-1.72;100.00;102669.56;87410;271;22547;-74
2024/01/29 07:08:58;;;;;;;22.50;17.20;;;;;;;-1.58;100.00;102669.95;86981;271;138596;-74
2024/01/29 07:10:59;;;;;;;19.90;15.30;;;;;;;-1.49;100.00;102672.94;87110;270;22904;-74
2024/01/29 07:13:01;;;;;;;24.00;18.00;;;;;;;-1.44;100.00;102674.85;87202;270;137827;-73
2024/01/29 07:15:04;;;;;;;23.00;17.30;;;;;;;-1.42;100.00;102679.15;87233;278;22643;-69
2024/01/29 07:17:05;;;;;;;27.90;18.90;;;;;;;-1.42;100.00;102679.34;87247;274;137443;-67
2024/01/29 07:19:07;;;;;;;24.60;17.60;;;;;;;-1.40;100.00;102682.75;87220;266;23997;-68
2024/01/29 07:21:09;;;;;;;23.00;18.50;;;;;;;-1.35;100.00;102678.74;87271;270;136651;-67
2024/01/29 07:23:11;;;;;;;26.20;21.30;;;;;;;-1.29;100.00;102677.69;87350;270;22853;-67
2024/01/29 07:25:14;;;;;;;32.80;22.40;;;;;;;-1.27;100.00;102684.41;87182;270;136850;-71
2024/01/29 07:27:19;;;;;;;24.40;19.40;;;;;;;-1.27;100.00;102694.70;87323;270;22567;-71
2024/01/29 07:29:22;;;;;;;31.60;19.20;;;;;;;-1.22;100.00;102687.89;87254;270;138400;-70
2024/01/29 07:31:23;;;;;;;23.90;18.10;;;;;;;-1.07;100.00;102691.20;87555;271;24650;-72
2024/01/29 07:33:26;;;;;;;16.70;13.30;;;;;;;-0.94;100.00;102688.64;87927;278;136858;-72
2024/01/29 07:35:28;;;;;;;16.70;13.10;;;;;;;-0.87;100.00;102686.80;88755;274;23877;-69
2024/01/29 07:37:31;;;;;;;19.10;14.50;;;;;;;-0.87;100.00;102684.34;88158;275;137174;-69
2024/01/29 07:39:32;;;;;;;17.00;12.50;;;;;;;-0.87;100.00;102682.60;88567;270;22583;-73
2024/01/29 07:41:37;;;;;;;22.40;15.00;;;;;;;-0.88;100.00;102680.58;87992;269;136314;-73
2024/01/29 07:43:42;;;;;;;22.00;14.90;;;;;;;-0.86;100.00;102678.91;88308;270;22627;-74
2024/01/29 07:45:44;;;;;;;27.20;17.30;;;;;;;-0.82;100.00;102683.31;88062;266;136727;-73
2024/01/29 07:47:45;;;;;;;18.30;13.10;;;;;;;-0.85;100.00;102680.77;87544;266;22565;-74
2024/01/29 07:49:48;;;;;;;16.90;12.60;;;;;;;-0.91;100.00;102682.92;87353;270;138078;-74
2024/01/29 07:51:49;;;;;;;14.20;11.70;;;;;;;-0.92;100.00;102680.52;87481;278;22560;-73
2024/01/29 07:53:52;;;;;;;12.40;9.60;;;;;;;-0.80;100.00;102677.63;87355;273;137467;-71
2024/01/29 07:55:53;;;;;;;9.00;7.80;;;;;;;-0.68;100.00;102679.98;87334;278;22536;-70
2024/01/29 07:57:55;;;;;;;13.90;9.10;;;;;;;-0.65;100.00;102689.29;87247;272;135866;-71
2024/01/29 07:59:59;;;;;;;9.40;8.30;;;;;;;-0.60;100.00;102695.23;87431;267;22584;-71
2024/01/29 08:02:01;;;;;;;9.80;8.20;;;;;;;-0.54;100.00;102690.98;87360;271;136892;-68
2024/01/29 08:04:03;;;;;;;10.70;8.50;;;;;;;-0.47;100.00;102692.30;87222;269;136853;-70
2024/01/29 08:06:05;;;;;;;14.50;10.60;;;;;;;-0.43;100.00;102695.62;87415;274;25291;-67
2024/01/29 08:08:07;;;;;;;11.50;9.30;;;;;;;-0.43;100.00;102704.16;86891;278;137663;-67
2024/01/29 08:10:09;;;;;;;9.10;7.70;;;;;;;-0.40;100.00;102704.60;87228;270;23936;-70
2024/01/29 08:12:11;;;;;;;10.10;7.50;;;;;;;-0.36;100.00;102702.69;87083;271;136332;-70
2024/01/29 08:14:13;;;;;;;8.20;7.30;;;;;;;-0.34;100.00;102710.30;87071;266;25076;-70
2024/01/29 08:16:15;;;;;;;9.60;8.00;;;;;;;-0.32;100.00;102709.89;87004;274;136462;-68
2024/01/29 08:18:17;;;;;;;8.20;7.40;;;;;;;-0.33;100.00;102707.67;87579;269;25079;-70
2024/01/29 08:20:19;;;;;;;8.70;7.50;;;;;;;-0.36;100.00;102709.84;87007;269;136268;-67
2024/01/29 08:22:22;;;;;;;9.80;7.80;;;;;;;-0.35;100.00;102704.39;87142;277;25124;-70
2024/01/29 08:24:25;;;;;;;9.70;7.60;;;;;;;-0.30;100.00;102698.25;87098;274;136353;-66
2024/01/29 08:26:28;;;;;;;11.90;8.30;;;;;;;-0.23;100.00;102698.70;87139;271;22571;-68
2024/01/29 08:28:30;;;;;;;9.50;7.20;;;;;;;-0.12;100.00;102702.29;87072;274;136975;-71
2024/01/29 08:30:31;;;;;;;10.80;7.40;;;;;;;-0.05;100.00;102704.64;87081;279;22583;-71
2024/01/29 08:32:33;;;;;;;9.20;7.00;;;;;;;-0.07;100.00;102704.55;87054;262;136584;-68
2024/01/29 08:34:35;;;;;;;7.80;6.50;;;;;;;-0.08;100.00;102705.81;87349;277;25175;-68
2024/01/29 08:36:37;;;;;;;8.80;7.40;;;;;;;-0.09;100.00;102707.23;87148;270;136162;-69
2024/01/29 08:38:40;;;;;;;10.80;8.80;;;;;;;-0.06;100.00;102708.71;87248;270;22626;-69
2024/01/29 08:40:42;;;;;;;12.30;8.70;;;;;;;-0.04;100.00;102708.77;87081;278;136511;-68
2024/01/29 08:42:44;;;;;;;9.50;7.80;;;;;;;-0.00;100.00;102708.30;87172;278;25124;-70
2024/01/29 08:44:46;;;;;;;10.90;8.80;;;;;;;0.04;100.00;102710.91;87081;277;136206;-68
2024/01/29 08:46:48;;;;;;;13.30;8.60;;;;;;;0.08;100.00;102714.95;87211;278;22655;-70
2024/01/29 08:48:51;;;;;;;13.90;9.30;;;;;;;0.09;100.00;102713.84;86819;277;136803;-68
2024/01/29 08:50:52;;;;;;;10.90;8.70;;;;;;;0.12;100.00;102716.36;87053;270;22584;-68
2024/01/29 08:52:55;;;;;;;12.20;8.70;;;;;;;0.13;100.00;102712.98;86923;274;136421;-68
2024/01/29 08:54:57;;;;;;;11.40;9.20;;;;;;;0.16;100.00;102711.45;87138;278;23506;-67
2024/01/29 08:56:59;;;;;;;11.10;8.40;;;;;;;0.23;100.00;102710.69;86980;274;136088;-72
2024/01/29 08:59:01;;;;;;;11.70;9.00;;;;;;;0.26;100.00;102704.79;87174;270;22618;-69
2024/01/29 09:01:02;;;;;;;12.70;9.90;;;;;;;0.24;100.00;102707.66;87009;270;137001;-68
2024/01/29 09:03:05;;;;;;;10.00;8.70;;;;;;;0.26;100.00;102714.05;87016;275;24827;-68
2024/01/29 09:05:08;;;;;;;9.30;8.20;;;;;;;0.24;100.00;102724.62;86935;270;136598;-67
2024/01/29 09:07:10;;;;;;;9.30;8.10;;;;;;;0.21;100.00;102725.46;87210;270;25664;-69
2024/01/29 09:09:12;;;;;;;13.10;10.60;;;;;;;0.19;100.00;102729.20;86896;271;136809;-68
2024/01/29 09:11:14;;;;;;;12.10;9.10;;;;;;;0.20;100.00;102731.59;87129;277;22847;-69
2024/01/29 09:13:15;;;;;;;13.30;10.30;;;;;;;0.23;100.00;102728.86;86913;270;137557;-70
2024/01/29 09:15:18;;;;;;;16.10;10.90;;;;;;;0.27;100.00;102728.53;87152;266;23997;-69